createdAt,value
2023-04-17T00:02:03.114Z,65.88
2023-04-17T00:04:32.344Z,61.65
2023-04-17T00:07:03.344Z,60.80
2023-04-17T00:09:31.908Z,55.85
2023-04-17T00:12:01.069Z,56.65
2023-04-17T00:14:31.093Z,52.72
2023-04-17T00:16:59.377Z,52.97
2023-04-17T00:19:27.765Z,48.92
2023-04-17T00:21:56.057Z,59.40
2023-04-17T00:24:24.388Z,57.85
2023-04-17T00:26:52.739Z,55.28
2023-04-17T00:29:21.074Z,53.90
2023-04-17T00:31:53.508Z,52.83
2023-04-17T00:34:22.024Z,47.92
2023-04-17T00:36:50.330Z,54.42
2023-04-17T00:39:18.868Z,54.03
2023-04-17T00:41:50.101Z,53.55
2023-04-17T00:44:18.502Z,54.00
2023-04-17T00:46:47.020Z,54.45
2023-04-17T00:49:17.056Z,57.42
2023-04-17T00:51:45.674Z,53.67
2023-04-17T00:54:14.996Z,59.63
2023-04-17T00:56:44.148Z,67.57
2023-04-17T00:59:14.447Z,58.22
2023-04-17T01:01:43.287Z,52.95
2023-04-17T01:04:12.074Z,56.90
2023-04-17T01:06:41.985Z,51.92
2023-04-17T01:09:10.664Z,48.50
2023-04-17T01:11:39.560Z,45.03
2023-04-17T01:14:07.864Z,45.47
2023-04-17T01:16:40.284Z,41.60
2023-04-17T01:19:10.364Z,42.97
2023-04-17T01:21:38.875Z,40.70
2023-04-17T01:24:09.504Z,41.97
2023-04-17T01:26:38.537Z,46.30
2023-04-17T01:29:06.954Z,51.80
2023-04-17T01:31:35.417Z,50.97
2023-04-17T01:34:03.914Z,50.85
2023-04-17T01:36:32.235Z,47.33
2023-04-17T01:39:00.840Z,45.40
2023-04-17T01:41:30.506Z,45.97
2023-04-17T01:43:58.821Z,48.05
2023-04-17T01:46:27.139Z,49.17
2023-04-17T01:48:56.307Z,56.28
2023-04-17T01:51:24.584Z,55.35
2023-04-17T01:53:52.824Z,53.28
2023-04-17T01:56:21.303Z,50.20
2023-04-17T01:58:51.706Z,51.63
2023-04-17T02:01:20.054Z,53.38
2023-04-17T02:03:51.400Z,53.42
2023-04-17T02:06:19.813Z,51.42
2023-04-17T02:08:48.287Z,52.03
2023-04-17T02:11:16.586Z,52.20
2023-04-17T02:13:44.926Z,51.50
2023-04-17T02:16:14.667Z,55.42
2023-04-17T02:18:43.200Z,50.88
2023-04-17T02:21:11.499Z,49.33
2023-04-17T02:23:39.818Z,49.65
2023-04-17T02:26:08.098Z,58.72
2023-04-17T02:28:36.489Z,51.90
2023-04-17T02:31:08.877Z,56.53
2023-04-17T02:33:39.121Z,48.50
2023-04-17T02:36:08.492Z,56.92
2023-04-17T02:38:37.870Z,51.33
2023-04-17T02:41:06.465Z,49.97
2023-04-17T02:43:34.750Z,53.40
2023-04-17T02:46:03.199Z,49.50
2023-04-17T02:48:31.507Z,49.30
2023-04-17T02:51:01.245Z,48.05
2023-04-17T02:53:29.535Z,49.45
2023-04-17T02:55:57.823Z,56.25
2023-04-17T02:58:26.188Z,50.15
2023-04-17T03:01:02.776Z,49.10
2023-04-17T03:03:35.102Z,47.70
2023-04-17T03:06:08.261Z,51.83
2023-04-17T03:08:38.437Z,50.22
2023-04-17T03:11:07.445Z,54.60
2023-04-17T03:13:37.655Z,59.13
2023-04-17T03:16:07.296Z,64.60
2023-04-17T03:18:40.181Z,52.72
2023-04-17T03:21:10.160Z,57.28
2023-04-17T03:23:38.449Z,53.22
2023-04-17T03:26:06.908Z,59.20
2023-04-17T03:28:35.209Z,54.03
2023-04-17T03:31:03.500Z,57.00
2023-04-17T03:33:31.854Z,57.28
2023-04-17T03:36:00.108Z,52.40
2023-04-17T03:38:29.765Z,51.45
2023-04-17T03:40:58.133Z,52.50
2023-04-17T03:43:27.751Z,45.67
2023-04-17T03:45:56.101Z,48.25
2023-04-17T03:48:24.491Z,50.30
2023-04-17T03:50:53.253Z,39.60
2023-04-17T03:53:21.804Z,41.40
2023-04-17T03:55:51.486Z,44.72
2023-04-17T03:58:19.752Z,40.88
2023-04-17T04:00:55.386Z,52.72
2023-04-17T04:03:24.093Z,46.45
2023-04-17T04:05:52.605Z,47.00
2023-04-17T04:08:21.048Z,56.47
2023-04-17T04:10:50.819Z,53.05
2023-04-17T04:13:19.152Z,42.85
2023-04-17T04:15:49.878Z,44.38
2023-04-17T04:18:18.304Z,45.42
2023-04-17T04:20:46.997Z,38.85
2023-04-17T04:23:16.848Z,37.58
2023-04-17T04:25:47.282Z,40.08
2023-04-17T04:28:17.865Z,38.97
2023-04-17T04:30:50.948Z,35.83
2023-04-17T04:33:21.097Z,43.53
2023-04-17T04:35:56.109Z,36.60
2023-04-17T04:38:29.928Z,38.95
2023-04-17T04:41:10.156Z,39.15
2023-04-17T04:43:39.845Z,41.08
2023-04-17T04:46:08.228Z,37.25
2023-04-17T04:48:36.549Z,40.03
2023-04-17T04:51:05.228Z,37.08
2023-04-17T04:53:33.592Z,34.15
2023-04-17T04:56:02.204Z,39.97
2023-04-17T04:58:30.672Z,40.63
2023-04-17T05:01:00.738Z,39.05
2023-04-17T05:03:29.330Z,45.17
2023-04-17T05:05:57.733Z,41.50
2023-04-17T05:08:26.064Z,49.03
2023-04-17T05:10:54.388Z,45.50
2023-04-17T05:13:22.814Z,44.05
2023-04-17T05:15:51.600Z,47.63
2023-04-17T05:18:21.275Z,50.47
2023-04-17T05:20:52.814Z,48.13
2023-04-17T05:23:22.999Z,45.28
2023-04-17T05:25:51.433Z,45.03
2023-04-17T05:28:19.822Z,52.72
2023-04-17T05:30:50.136Z,50.90
2023-04-17T05:33:19.841Z,45.78
2023-04-17T05:35:48.213Z,48.45
2023-04-17T05:38:16.601Z,48.55
2023-04-17T05:40:47.621Z,47.58
2023-04-17T05:43:16.074Z,52.10
2023-04-17T05:45:44.439Z,49.42
2023-04-17T05:48:12.816Z,49.83
2023-04-17T05:50:42.628Z,50.33
2023-04-17T05:53:11.130Z,53.00
2023-04-17T05:55:39.429Z,55.33
2023-04-17T05:58:16.818Z,50.08
2023-04-17T06:00:52.416Z,48.33
2023-04-17T06:03:21.412Z,58.83
2023-04-17T06:05:52.080Z,50.22
2023-04-17T06:08:20.554Z,51.20
2023-04-17T06:10:55.442Z,52.80
2023-04-17T06:13:24.554Z,59.50
2023-04-17T06:15:52.931Z,53.15
2023-04-17T06:18:21.309Z,50.35
2023-04-17T06:20:51.070Z,61.53
2023-04-17T06:23:19.380Z,55.08
2023-04-17T06:25:47.855Z,55.72
2023-04-17T06:28:16.103Z,55.55
2023-04-17T06:30:44.749Z,52.42
2023-04-17T06:33:13.064Z,53.15
2023-04-17T06:35:41.703Z,51.85
2023-04-17T06:38:13.283Z,51.05
2023-04-17T06:40:41.887Z,52.03
2023-04-17T06:43:10.227Z,45.75
2023-04-17T06:45:42.157Z,50.25
2023-04-17T06:48:10.543Z,51.08
2023-04-17T06:50:42.649Z,57.03
2023-04-17T06:53:12.327Z,47.00
2023-04-17T06:55:40.693Z,50.47
2023-04-17T06:58:09.680Z,45.67
2023-04-17T07:00:38.030Z,46.92
2023-04-17T07:03:07.069Z,43.92
2023-04-17T07:05:35.717Z,42.28
2023-04-17T07:08:04.035Z,42.85
2023-04-17T07:10:33.684Z,48.15
2023-04-17T07:13:02.627Z,37.95
2023-04-17T07:15:31.562Z,43.92
2023-04-17T07:18:02.241Z,42.83
2023-04-17T07:20:34.039Z,44.70
2023-04-17T07:23:02.669Z,40.55
2023-04-17T07:25:31.069Z,45.08
2023-04-17T07:28:02.618Z,42.47
2023-04-17T07:30:32.421Z,43.72
2023-04-17T07:33:01.282Z,46.00
2023-04-17T07:35:29.737Z,40.95
2023-04-17T07:37:59.092Z,47.10
2023-04-17T07:40:27.666Z,44.92
2023-04-17T07:42:56.785Z,39.25
2023-04-17T07:45:29.542Z,45.47
2023-04-17T07:47:58.016Z,45.75
2023-04-17T07:50:26.601Z,45.47
2023-04-17T07:52:54.910Z,49.55
2023-04-17T07:55:23.450Z,46.70
2023-04-17T07:57:53.006Z,42.17
2023-04-17T08:00:21.983Z,45.10
2023-04-17T08:02:52.439Z,44.53
2023-04-17T08:05:21.001Z,40.78
2023-04-17T08:07:52.529Z,44.75
2023-04-17T08:10:21.075Z,40.28
2023-04-17T08:12:52.882Z,47.40
2023-04-17T08:15:21.337Z,45.33
2023-04-17T08:17:51.124Z,48.80
2023-04-17T08:20:19.768Z,45.05
2023-04-17T08:22:48.566Z,45.47
2023-04-17T08:25:16.980Z,43.80
2023-04-17T08:27:45.584Z,48.00
2023-04-17T08:30:18.600Z,44.72
2023-04-17T08:32:52.414Z,44.45
2023-04-17T08:35:21.196Z,45.10
2023-04-17T08:37:49.592Z,42.92
2023-04-17T08:40:18.808Z,45.97
2023-04-17T08:42:48.245Z,45.20
2023-04-17T08:45:17.490Z,45.50
2023-04-17T08:47:45.887Z,44.65
2023-04-17T08:50:18.245Z,50.03
2023-04-17T08:52:48.546Z,44.67
2023-04-17T08:55:19.669Z,44.65
2023-04-17T08:57:58.855Z,45.30
2023-04-17T09:00:32.481Z,48.45
2023-04-17T09:03:04.141Z,45.72
2023-04-17T09:05:34.403Z,48.65
2023-04-17T09:08:12.534Z,44.22
2023-04-17T09:10:43.337Z,48.72
2023-04-17T09:13:31.236Z,49.30
2023-04-17T09:16:08.162Z,47.28
2023-04-17T09:18:38.523Z,45.13
2023-04-17T09:21:14.027Z,46.67
2023-04-17T09:23:51.234Z,49.58
2023-04-17T09:26:22.139Z,46.45
2023-04-17T09:29:05.195Z,44.22
2023-04-17T09:31:36.299Z,48.60
2023-04-17T09:34:07.556Z,47.38
2023-04-17T09:36:39.619Z,42.58
2023-04-17T09:39:20.363Z,39.42
2023-04-17T09:41:49.002Z,40.97
2023-04-17T09:44:27.979Z,43.95
2023-04-17T09:46:57.110Z,38.63
2023-04-17T09:49:34.923Z,41.83
2023-04-17T09:52:05.501Z,39.72
2023-04-17T09:54:37.770Z,40.85
2023-04-17T09:57:08.639Z,41.35
2023-04-17T09:59:40.874Z,39.03
2023-04-17T10:02:11.629Z,43.90
2023-04-17T10:04:41.917Z,39.17
2023-04-17T10:07:12.731Z,38.58
2023-04-17T10:09:42.770Z,35.65
2023-04-17T10:12:16.434Z,37.47
2023-04-17T10:14:49.812Z,38.72
2023-04-17T10:17:31.788Z,41.20
2023-04-17T10:20:39.136Z,45.95
2023-04-17T10:23:34.073Z,41.08
2023-04-17T10:26:42.260Z,40.33
2023-04-17T10:29:12.792Z,39.30
2023-04-17T10:32:15.750Z,42.33
2023-04-17T10:34:44.248Z,42.95
2023-04-17T10:37:15.494Z,40.25
2023-04-17T10:40:02.908Z,42.90
2023-04-17T10:42:32.996Z,38.35
2023-04-17T10:45:05.473Z,44.22
2023-04-17T10:47:35.779Z,40.70
2023-04-17T10:50:10.106Z,38.47
2023-04-17T10:52:42.169Z,39.95
2023-04-17T10:55:16.432Z,41.80
2023-04-17T10:58:00.959Z,41.28
2023-04-17T11:00:34.123Z,39.15
2023-04-17T11:03:07.622Z,39.45
2023-04-17T11:05:36.777Z,38.25
2023-04-17T11:08:05.417Z,34.72
2023-04-17T11:10:38.039Z,40.28
2023-04-17T11:13:06.443Z,35.50
2023-04-17T11:15:36.152Z,35.90
2023-04-17T11:18:05.426Z,38.55
2023-04-17T11:20:37.675Z,37.90
2023-04-17T11:23:07.741Z,33.97
2023-04-17T11:25:38.629Z,38.28
2023-04-17T11:28:08.123Z,34.92
2023-04-17T11:30:40.764Z,31.65
2023-04-17T11:33:10.160Z,34.40
2023-04-17T11:35:44.716Z,34.63
2023-04-17T11:38:20.978Z,32.47
2023-04-17T11:40:53.717Z,29.52
2023-04-17T11:43:24.006Z,30.50
2023-04-17T11:45:53.868Z,33.92
2023-04-17T11:48:24.186Z,34.15
2023-04-17T11:50:57.296Z,31.77
2023-04-17T11:53:26.128Z,29.52
2023-04-17T11:56:14.872Z,28.08
2023-04-17T11:58:57.365Z,29.40
2023-04-17T12:01:27.175Z,29.38
2023-04-17T12:03:57.490Z,31.30
2023-04-17T12:06:26.735Z,28.85
2023-04-17T12:08:56.584Z,27.70
2023-04-17T12:11:31.256Z,32.20
2023-04-17T12:14:00.233Z,27.25
2023-04-17T12:16:30.233Z,27.60
2023-04-17T12:18:59.036Z,29.58
2023-04-17T12:21:27.325Z,30.92
2023-04-17T12:23:55.645Z,26.92
2023-04-17T12:26:26.061Z,27.50
2023-04-17T12:28:54.395Z,30.98
2023-04-17T12:31:22.908Z,28.08
2023-04-17T12:33:52.501Z,24.30
2023-04-17T12:36:20.864Z,30.13
2023-04-17T12:38:49.454Z,26.40
2023-04-17T12:41:17.780Z,28.50
2023-04-17T12:43:47.700Z,26.75
2023-04-17T12:46:16.150Z,29.20
2023-04-17T12:48:44.497Z,25.02
2023-04-17T12:51:12.778Z,25.30
2023-04-17T12:53:41.102Z,27.10
2023-04-17T12:56:09.641Z,27.90
2023-04-17T12:58:37.912Z,30.90
2023-04-17T13:01:07.804Z,30.08
2023-04-17T13:03:36.582Z,24.90
2023-04-17T13:06:05.473Z,30.90
2023-04-17T13:08:33.816Z,25.75
2023-04-17T13:11:03.816Z,26.13
2023-04-17T13:13:32.097Z,29.08
2023-04-17T13:16:01.079Z,26.33
2023-04-17T13:18:30.945Z,28.92
2023-04-17T13:20:59.218Z,27.33
2023-04-17T13:23:27.558Z,24.70
2023-04-17T13:25:57.738Z,27.10
2023-04-17T13:28:26.215Z,26.60
2023-04-17T13:30:54.518Z,26.30
2023-04-17T13:33:22.929Z,27.30
2023-04-17T13:35:53.959Z,28.80
2023-04-17T13:38:22.363Z,27.70
2023-04-17T13:40:50.730Z,29.98
2023-04-17T13:43:19.004Z,31.17
2023-04-17T13:45:47.730Z,28.00
2023-04-17T13:48:16.242Z,31.42
2023-04-17T13:50:44.572Z,29.35
2023-04-17T13:53:14.330Z,30.73
2023-04-17T13:55:42.967Z,32.40
2023-04-17T13:58:11.308Z,31.23
2023-04-17T14:00:39.710Z,31.08
2023-04-17T14:03:08.188Z,31.13
2023-04-17T14:05:37.018Z,33.20
2023-04-17T14:08:05.785Z,33.40
2023-04-17T14:10:36.681Z,30.17
2023-04-17T14:13:05.115Z,29.30
2023-04-17T14:15:33.640Z,29.00
2023-04-17T14:18:02.287Z,33.85
2023-04-17T14:20:30.909Z,30.27
2023-04-17T14:22:59.727Z,31.05
2023-04-17T14:25:28.341Z,30.75
2023-04-17T14:27:58.275Z,35.35
2023-04-17T14:30:26.814Z,32.42
2023-04-17T14:32:55.209Z,33.45
2023-04-17T14:35:23.536Z,34.25
2023-04-17T14:37:51.850Z,29.90
2023-04-17T14:40:20.364Z,28.60
2023-04-17T14:42:54.044Z,32.17
2023-04-17T14:45:24.229Z,29.27
2023-04-17T14:47:52.677Z,29.60
2023-04-17T14:50:21.249Z,29.73
2023-04-17T14:52:49.747Z,27.00
2023-04-17T14:55:18.216Z,28.45
2023-04-17T14:57:46.755Z,28.50
2023-04-17T15:00:17.008Z,34.97
2023-04-17T15:02:46.891Z,31.80
2023-04-17T15:05:22.050Z,31.50
2023-04-17T15:07:50.504Z,29.00
2023-04-17T15:10:18.829Z,32.30
2023-04-17T15:12:50.435Z,30.73
2023-04-17T15:15:18.930Z,30.00
2023-04-17T15:17:48.859Z,30.98
2023-04-17T15:20:17.435Z,28.05
2023-04-17T15:22:52.377Z,26.20
2023-04-17T15:25:21.015Z,28.30
2023-04-17T15:27:49.533Z,29.33
2023-04-17T15:30:17.937Z,27.45
2023-04-17T15:32:50.148Z,30.40
2023-04-17T15:35:18.679Z,29.75
2023-04-17T15:37:48.489Z,26.10
2023-04-17T15:40:17.556Z,29.38
2023-04-17T15:42:45.958Z,29.05
2023-04-17T15:45:14.342Z,36.97
2023-04-17T15:47:43.044Z,29.80
2023-04-17T15:50:13.943Z,29.80
2023-04-17T15:52:42.296Z,29.77
2023-04-17T15:55:11.440Z,32.05
2023-04-17T15:57:41.121Z,32.33
2023-04-17T16:00:12.971Z,29.70
2023-04-17T16:02:41.780Z,25.92
2023-04-17T16:05:12.282Z,30.45
2023-04-17T16:07:40.796Z,28.80
2023-04-17T16:10:13.878Z,28.15
2023-04-17T16:12:43.203Z,27.73
2023-04-17T16:15:12.876Z,31.42
2023-04-17T16:17:42.054Z,31.23
2023-04-17T16:20:13.359Z,28.65
2023-04-17T16:22:41.803Z,31.23
2023-04-17T16:25:12.142Z,27.10
2023-04-17T16:27:41.169Z,29.38
2023-04-17T16:30:11.578Z,29.05
2023-04-17T16:32:39.958Z,29.73
2023-04-17T16:35:09.604Z,30.15
2023-04-17T16:37:39.369Z,28.33
2023-04-17T16:40:11.664Z,28.50
2023-04-17T16:42:40.297Z,26.05
2023-04-17T16:45:09.688Z,27.45
2023-04-17T16:47:38.894Z,25.65
2023-04-17T16:50:11.155Z,29.48
2023-04-17T16:52:42.359Z,24.15
2023-04-17T16:55:11.434Z,26.85
2023-04-17T16:57:42.807Z,27.25
2023-04-17T17:00:14.125Z,24.42
2023-04-17T17:02:42.718Z,27.30
2023-04-17T17:05:11.519Z,28.58
2023-04-17T17:07:41.264Z,23.02
2023-04-17T17:10:11.092Z,27.73
2023-04-17T17:12:39.377Z,28.33
2023-04-17T17:15:09.196Z,22.95
2023-04-17T17:17:37.525Z,25.92
2023-04-17T17:20:07.546Z,23.70
2023-04-17T17:22:35.899Z,24.33
2023-04-17T17:25:07.015Z,22.92
2023-04-17T17:27:35.446Z,25.17
2023-04-17T17:30:04.374Z,26.80
2023-04-17T17:32:32.815Z,22.00
2023-04-17T17:35:01.307Z,22.10
2023-04-17T17:37:29.614Z,26.42
2023-04-17T17:39:57.898Z,24.15
2023-04-17T17:42:27.606Z,26.95
2023-04-17T17:44:56.101Z,26.27
2023-04-17T17:47:24.447Z,23.75
2023-04-17T17:49:52.875Z,26.95
2023-04-17T17:52:21.292Z,24.52
2023-04-17T17:54:49.736Z,23.27
2023-04-17T17:57:18.076Z,23.08
2023-04-17T17:59:48.010Z,24.85
2023-04-17T18:02:16.499Z,24.73
2023-04-17T18:04:44.925Z,24.70
2023-04-17T18:07:13.997Z,25.95
2023-04-17T18:09:42.424Z,25.67
2023-04-17T18:12:10.706Z,29.60
2023-04-17T18:14:39.072Z,26.25
2023-04-17T18:17:08.969Z,23.83
2023-04-17T18:19:40.848Z,29.88
2023-04-17T18:22:09.731Z,25.55
2023-04-17T18:24:38.168Z,29.85
2023-04-17T18:27:06.466Z,25.67
2023-04-17T18:29:35.017Z,25.88
2023-04-17T18:32:06.430Z,29.13
2023-04-17T18:34:36.134Z,29.83
2023-04-17T18:37:04.869Z,29.98
2023-04-17T18:39:36.084Z,31.27
2023-04-17T18:42:04.548Z,29.77
2023-04-17T18:44:37.384Z,28.05
2023-04-17T18:47:10.516Z,28.55
2023-04-17T18:49:40.252Z,30.40
2023-04-17T18:52:08.650Z,28.52
2023-04-17T18:54:37.514Z,30.73
2023-04-17T18:57:06.080Z,31.92
2023-04-17T18:59:34.568Z,29.35
2023-04-17T19:02:03.098Z,33.70
2023-04-17T19:04:31.487Z,30.60
2023-04-17T19:07:02.715Z,31.52
2023-04-17T19:09:41.087Z,33.95
2023-04-17T19:12:10.090Z,33.95
2023-04-17T19:14:38.441Z,30.33
2023-04-17T19:17:06.847Z,31.08
2023-04-17T19:19:35.255Z,31.73
2023-04-17T19:22:05.213Z,32.70
2023-04-17T19:24:33.574Z,32.45
2023-04-17T19:27:02.224Z,35.83
2023-04-17T19:29:30.567Z,34.17
2023-04-17T19:31:58.906Z,35.78
2023-04-17T19:34:27.250Z,33.75
2023-04-17T19:36:55.555Z,34.85
2023-04-17T19:39:28.050Z,34.05
2023-04-17T19:41:56.436Z,36.10
2023-04-17T19:44:25.994Z,35.80
2023-04-17T19:46:56.441Z,37.97
2023-04-17T19:49:24.839Z,36.00
2023-04-17T19:51:53.161Z,37.90
2023-04-17T19:54:21.624Z,35.47
2023-04-17T19:56:51.360Z,37.45
2023-04-17T19:59:19.755Z,37.25
2023-04-17T20:01:48.811Z,36.85
2023-04-17T20:04:17.505Z,38.97
2023-04-17T20:06:45.886Z,37.33
2023-04-17T20:09:15.513Z,38.25
2023-04-17T20:11:44.079Z,40.25
2023-04-17T20:14:14.842Z,39.88
2023-04-17T20:16:45.534Z,39.53
2023-04-17T20:19:14.391Z,38.30
2023-04-17T20:21:44.011Z,43.17
2023-04-17T20:24:12.979Z,39.22
2023-04-17T20:26:41.319Z,39.28
2023-04-17T20:29:09.705Z,42.03
2023-04-17T20:31:39.490Z,38.72
2023-04-17T20:34:07.895Z,38.08
2023-04-17T20:36:36.235Z,39.22
2023-04-17T20:39:04.754Z,39.35
2023-04-17T20:41:33.047Z,42.42
2023-04-17T20:44:02.819Z,38.47
2023-04-17T20:46:31.680Z,42.20
2023-04-17T20:49:01.473Z,43.75
2023-04-17T20:51:29.795Z,40.17
2023-04-17T20:53:58.106Z,43.03
2023-04-17T20:56:26.613Z,42.15
2023-04-17T20:58:54.959Z,43.50
2023-04-17T21:01:23.328Z,42.42
2023-04-17T21:03:51.764Z,42.60
2023-04-17T21:06:22.820Z,40.25
2023-04-17T21:08:51.197Z,40.72
2023-04-17T21:11:20.044Z,41.65
2023-04-17T21:13:51.512Z,42.78
2023-04-17T21:16:19.995Z,42.55
2023-04-17T21:18:51.399Z,39.05
2023-04-17T21:21:21.431Z,42.20
2023-04-17T21:23:49.817Z,42.65
2023-04-17T21:26:18.718Z,43.22
2023-04-17T21:28:47.016Z,39.85
2023-04-17T21:31:15.973Z,43.75
2023-04-17T21:33:44.248Z,46.33
2023-04-17T21:36:13.134Z,43.45
2023-04-17T21:38:43.198Z,39.92
2023-04-17T21:41:11.547Z,39.58
2023-04-17T21:43:39.848Z,41.42
2023-04-17T21:46:11.404Z,38.05
2023-04-17T21:48:40.807Z,37.22
2023-04-17T21:51:09.407Z,39.17
2023-04-17T21:53:38.532Z,37.53
2023-04-17T21:56:09.578Z,37.85
2023-04-17T21:58:37.943Z,39.22
2023-04-17T22:01:06.722Z,35.72
2023-04-17T22:03:35.254Z,37.53
2023-04-17T22:06:04.929Z,40.28
2023-04-17T22:08:33.263Z,37.55
2023-04-17T22:11:01.673Z,34.03
2023-04-17T22:13:32.160Z,32.90
2023-04-17T22:16:00.696Z,33.83
2023-04-17T22:18:31.326Z,37.53
2023-04-17T22:21:35.708Z,33.03
2023-04-17T22:24:40.990Z,35.60
2023-04-17T22:27:27.050Z,37.22
2023-04-17T22:30:15.472Z,31.92
2023-04-17T22:33:21.196Z,33.15
2023-04-17T22:36:11.194Z,36.85
2023-04-17T22:38:57.043Z,32.92
2023-04-17T22:42:01.275Z,35.72
2023-04-17T22:44:29.550Z,34.63
2023-04-17T22:46:59.207Z,32.20
2023-04-17T22:49:27.462Z,33.90
2023-04-17T22:51:55.740Z,34.83
2023-04-17T22:54:24.401Z,37.63
2023-04-17T22:56:52.910Z,39.55
2023-04-17T22:59:21.315Z,35.38
2023-04-17T23:01:53.984Z,35.08
2023-04-17T23:04:24.577Z,31.02
2023-04-17T23:06:52.816Z,35.40
2023-04-17T23:09:21.117Z,30.42
2023-04-17T23:11:49.482Z,30.45
2023-04-17T23:14:17.780Z,33.40
2023-04-17T23:16:46.023Z,29.95
2023-04-17T23:19:14.393Z,34.80
2023-04-17T23:21:44.069Z,33.20
2023-04-17T23:24:12.603Z,34.85
2023-04-17T23:26:41.894Z,38.50
2023-04-17T23:29:10.191Z,36.75
2023-04-17T23:31:38.745Z,37.50
2023-04-17T23:34:07.066Z,37.55
2023-04-17T23:36:35.429Z,42.00
2023-04-17T23:39:05.787Z,39.97
2023-04-17T23:41:34.981Z,36.05
2023-04-17T23:44:04.355Z,33.92
2023-04-17T23:46:32.637Z,42.08
2023-04-17T23:49:00.993Z,41.72
2023-04-17T23:51:29.786Z,40.25
2023-04-17T23:53:59.898Z,36.63
2023-04-17T23:56:31.144Z,39.03
2023-04-17T23:58:59.628Z,37.72
